createdAt,value
2024-04-13T00:00:33.256Z,4.07
2024-04-13T00:02:56.215Z,3.87
2024-04-13T00:05:18.684Z,3.90
2024-04-13T00:07:41.142Z,3.33
2024-04-13T00:10:04.956Z,3.57
2024-04-13T00:12:27.397Z,3.47
2024-04-13T00:14:49.912Z,3.67
2024-04-13T00:17:12.343Z,3.40
2024-04-13T00:19:36.794Z,3.53
2024-04-13T00:22:01.728Z,3.40
2024-04-13T00:24:24.320Z,3.07
2024-04-13T00:26:46.816Z,3.50
2024-04-13T00:29:10.276Z,3.50
2024-04-13T00:31:33.574Z,3.83
2024-04-13T00:33:56.077Z,3.70
2024-04-13T00:36:19.404Z,3.43
2024-04-13T00:38:41.976Z,3.50
2024-04-13T00:41:04.598Z,3.40
2024-04-13T00:43:27.097Z,2.97
2024-04-13T00:45:49.903Z,2.90
2024-04-13T00:48:18.208Z,3.27
2024-04-13T00:50:41.973Z,3.40
2024-04-13T00:53:04.958Z,3.93
2024-04-13T00:55:27.597Z,3.80
2024-04-13T00:57:50.091Z,2.90
2024-04-13T01:00:14.090Z,2.80
2024-04-13T01:02:38.422Z,3.10
2024-04-13T01:05:00.921Z,2.87
2024-04-13T01:07:25.597Z,2.87
2024-04-13T01:09:48.933Z,2.90
2024-04-13T01:12:12.397Z,3.50
2024-04-13T01:14:36.976Z,3.00
2024-04-13T01:16:59.493Z,3.03
2024-04-13T01:19:22.821Z,3.27
2024-04-13T01:21:45.305Z,2.90
2024-04-13T01:24:08.622Z,2.97
2024-04-13T01:26:31.309Z,3.20
2024-04-13T01:28:53.711Z,3.03
2024-04-13T01:31:17.915Z,3.23
2024-04-13T01:33:40.471Z,3.20
2024-04-13T01:36:03.115Z,3.43
2024-04-13T01:38:25.977Z,2.97
2024-04-13T01:40:48.400Z,3.47
2024-04-13T01:43:10.851Z,3.10
2024-04-13T01:45:33.372Z,3.47
2024-04-13T01:47:55.910Z,3.20
2024-04-13T01:50:23.399Z,3.40
2024-04-13T01:52:45.909Z,2.90
2024-04-13T01:55:08.440Z,3.10
2024-04-13T01:57:31.056Z,3.30
2024-04-13T01:59:53.594Z,2.87
2024-04-13T02:02:16.098Z,2.60
2024-04-13T02:04:38.997Z,2.87
2024-04-13T02:07:01.409Z,2.90
2024-04-13T02:09:24.010Z,2.80
2024-04-13T02:11:49.281Z,2.63
2024-04-13T02:14:12.540Z,2.80
2024-04-13T02:16:34.962Z,2.90
2024-04-13T02:18:57.880Z,2.70
2024-04-13T02:21:21.849Z,2.93
2024-04-13T02:23:44.391Z,3.13
2024-04-13T02:26:09.083Z,3.13
2024-04-13T02:28:31.806Z,2.87
2024-04-13T02:30:55.239Z,2.80
2024-04-13T02:33:17.825Z,3.00
2024-04-13T02:35:40.591Z,2.53
2024-04-13T02:38:04.024Z,2.73
2024-04-13T02:40:26.931Z,2.93
2024-04-13T02:42:49.378Z,3.63
2024-04-13T02:45:12.035Z,3.53
2024-04-13T02:47:34.533Z,3.80
2024-04-13T02:49:56.972Z,3.73
2024-04-13T02:52:21.447Z,3.43
2024-04-13T02:54:43.902Z,3.10
2024-04-13T02:57:06.736Z,2.90
2024-04-13T02:59:29.875Z,3.00
2024-04-13T03:01:52.313Z,2.90
2024-04-13T03:04:14.972Z,3.30
2024-04-13T03:06:38.627Z,3.10
2024-04-13T03:09:01.130Z,3.23
2024-04-13T03:11:23.939Z,2.63
2024-04-13T03:13:50.464Z,2.87
2024-04-13T03:16:13.896Z,3.13
2024-04-13T03:18:40.400Z,2.87
2024-04-13T03:21:03.108Z,2.93
2024-04-13T03:23:25.919Z,3.47
2024-04-13T03:25:49.390Z,3.10
2024-04-13T03:28:11.869Z,2.97
2024-04-13T03:30:34.400Z,2.67
2024-04-13T03:32:57.454Z,2.83
2024-04-13T03:35:20.110Z,2.80
2024-04-13T03:37:43.093Z,2.90
2024-04-13T03:40:07.049Z,3.10
2024-04-13T03:42:29.516Z,3.07
2024-04-13T03:44:52.198Z,3.43
2024-04-13T03:47:14.707Z,3.30
2024-04-13T03:49:37.166Z,2.83
2024-04-13T03:51:59.734Z,2.63
2024-04-13T03:54:22.194Z,3.33
2024-04-13T03:56:44.626Z,3.00
2024-04-13T03:59:07.111Z,3.00
2024-04-13T04:01:30.748Z,2.90
2024-04-13T04:03:53.383Z,2.90
2024-04-13T04:06:15.981Z,2.73
2024-04-13T04:08:38.403Z,3.27
2024-04-13T04:11:00.838Z,2.90
2024-04-13T04:13:24.862Z,3.03
2024-04-13T04:15:47.413Z,3.10
2024-04-13T04:18:10.633Z,2.90
2024-04-13T04:20:33.667Z,3.17
2024-04-13T04:22:56.083Z,3.00
2024-04-13T04:25:22.671Z,3.23
2024-04-13T04:27:45.149Z,3.40
2024-04-13T04:30:10.085Z,2.97
2024-04-13T04:32:33.123Z,3.17
2024-04-13T04:34:55.641Z,3.20
2024-04-13T04:37:18.060Z,2.83
2024-04-13T04:39:40.646Z,2.87
2024-04-13T04:42:03.129Z,3.00
2024-04-13T04:44:25.557Z,3.13
2024-04-13T04:46:48.016Z,2.97
2024-04-13T04:49:11.065Z,2.70
2024-04-13T04:51:33.904Z,2.60
2024-04-13T04:53:56.372Z,2.90
2024-04-13T04:56:18.794Z,2.83
2024-04-13T04:58:41.221Z,2.80
2024-04-13T05:01:04.347Z,2.53
2024-04-13T05:03:27.287Z,2.90
2024-04-13T05:05:50.270Z,2.40
2024-04-13T05:08:12.759Z,2.73
2024-04-13T05:10:38.419Z,2.90
2024-04-13T05:13:00.871Z,2.80
2024-04-13T05:15:23.678Z,2.70
2024-04-13T05:17:46.215Z,2.40
2024-04-13T05:20:08.873Z,2.30
2024-04-13T05:22:31.343Z,2.30
2024-04-13T05:24:53.760Z,3.20
2024-04-13T05:27:17.305Z,2.47
2024-04-13T05:29:41.095Z,2.93
2024-04-13T05:32:05.423Z,2.87
2024-04-13T05:34:27.911Z,3.40
2024-04-13T05:36:50.391Z,2.97
2024-04-13T05:39:15.662Z,2.83
2024-04-13T05:41:38.454Z,2.93
2024-04-13T05:44:00.883Z,3.00
2024-04-13T05:46:23.639Z,3.10
2024-04-13T05:48:46.052Z,2.73
2024-04-13T05:51:11.088Z,2.93
2024-04-13T05:53:33.602Z,2.83
2024-04-13T05:55:56.124Z,2.97
2024-04-13T05:58:19.127Z,3.10
2024-04-13T06:00:41.779Z,3.37
2024-04-13T06:03:04.416Z,2.83
2024-04-13T06:05:27.933Z,3.17
2024-04-13T06:07:50.417Z,3.07
2024-04-13T06:10:12.850Z,3.20
2024-04-13T06:12:35.951Z,3.63
2024-04-13T06:14:58.628Z,4.07
2024-04-13T06:17:21.167Z,3.77
2024-04-13T06:19:43.615Z,3.73
2024-04-13T06:22:06.199Z,4.00
2024-04-13T06:24:28.683Z,3.60
2024-04-13T06:26:51.150Z,3.77
2024-04-13T06:29:13.569Z,3.40
2024-04-13T06:31:35.981Z,4.43
2024-04-13T06:33:58.666Z,3.50
2024-04-13T06:36:21.424Z,2.90
2024-04-13T06:38:44.040Z,3.30
2024-04-13T06:41:07.486Z,3.77
2024-04-13T06:43:29.966Z,3.57
2024-04-13T06:45:52.525Z,3.63
2024-04-13T06:48:15.242Z,3.17
2024-04-13T06:50:37.734Z,4.50
2024-04-13T06:53:00.584Z,3.70
2024-04-13T06:55:23.352Z,3.87
2024-04-13T06:57:45.858Z,3.37
2024-04-13T07:00:08.602Z,4.47
2024-04-13T07:02:31.434Z,4.20
2024-04-13T07:04:54.053Z,3.90
2024-04-13T07:07:17.288Z,3.53
2024-04-13T07:09:40.757Z,4.30
2024-04-13T07:12:04.003Z,3.93
2024-04-13T07:14:28.057Z,4.40
2024-04-13T07:16:51.973Z,4.43
2024-04-13T07:19:17.314Z,4.63
2024-04-13T07:21:42.892Z,3.90
2024-04-13T07:24:06.167Z,5.80
2024-04-13T07:26:29.844Z,4.70
2024-04-13T07:28:53.387Z,5.18
2024-04-13T07:31:15.844Z,4.72
2024-04-13T07:33:38.584Z,4.72
2024-04-13T07:36:01.225Z,4.40
2024-04-13T07:38:23.691Z,4.53
2024-04-13T07:40:46.198Z,4.93
2024-04-13T07:43:08.927Z,4.38
2024-04-13T07:45:31.414Z,3.95
2024-04-13T07:47:54.220Z,4.65
2024-04-13T07:50:16.860Z,3.95
2024-04-13T07:52:39.333Z,3.85
2024-04-13T07:55:02.764Z,3.65
2024-04-13T07:57:25.628Z,3.85
2024-04-13T07:59:48.097Z,4.35
2024-04-13T08:02:10.582Z,3.85
2024-04-13T08:04:33.192Z,3.55
2024-04-13T08:06:56.326Z,4.40
2024-04-13T08:09:18.817Z,3.95
2024-04-13T08:11:41.320Z,4.55
2024-04-13T08:14:08.741Z,3.80
2024-04-13T08:16:31.489Z,4.00
2024-04-13T08:18:53.985Z,3.50
2024-04-13T08:21:16.513Z,4.40
2024-04-13T08:23:38.945Z,3.50
2024-04-13T08:26:05.158Z,3.72
2024-04-13T08:28:27.627Z,3.83
2024-04-13T08:30:50.498Z,3.30
2024-04-13T08:33:13.101Z,3.53
2024-04-13T08:35:35.633Z,3.50
2024-04-13T08:37:58.077Z,3.25
2024-04-13T08:40:20.723Z,4.03
2024-04-13T08:42:45.278Z,3.40
2024-04-13T08:45:11.771Z,3.85
2024-04-13T08:47:35.390Z,3.80
2024-04-13T08:50:01.126Z,3.30
2024-04-13T08:52:24.393Z,2.70
2024-04-13T08:54:48.918Z,2.88
2024-04-13T08:57:13.534Z,2.63
2024-04-13T08:59:36.571Z,2.95
2024-04-13T09:01:59.746Z,3.38
2024-04-13T09:04:22.350Z,3.15
2024-04-13T09:06:45.540Z,3.42
2024-04-13T09:09:09.846Z,2.70
2024-04-13T09:11:32.402Z,2.63
2024-04-13T09:13:54.936Z,2.85
2024-04-13T09:16:18.628Z,3.50
2024-04-13T09:18:42.674Z,2.90
2024-04-13T09:21:05.534Z,3.83
2024-04-13T09:23:29.967Z,3.15
2024-04-13T09:26:01.545Z,3.72
2024-04-13T09:28:24.025Z,2.65
2024-04-13T09:30:48.601Z,3.10
2024-04-13T09:33:12.647Z,3.08
2024-04-13T09:35:35.448Z,2.38
2024-04-13T09:38:01.266Z,2.45
2024-04-13T09:40:23.718Z,2.28
2024-04-13T09:42:49.493Z,2.30
2024-04-13T09:45:12.436Z,2.05
2024-04-13T09:47:35.259Z,2.80
2024-04-13T09:49:57.735Z,1.90
2024-04-13T09:52:20.476Z,2.10
2024-04-13T09:54:43.726Z,2.55
2024-04-13T09:57:07.826Z,2.10
2024-04-13T09:59:33.058Z,2.05
2024-04-13T10:01:55.654Z,2.05
2024-04-13T10:04:18.435Z,2.10
2024-04-13T10:06:42.043Z,1.58
2024-04-13T10:09:06.027Z,2.05
2024-04-13T10:11:29.045Z,2.17
2024-04-13T10:13:52.324Z,2.10
2024-04-13T10:16:16.257Z,2.00
2024-04-13T10:18:39.282Z,1.67
2024-04-13T10:21:05.360Z,1.77
2024-04-13T10:23:27.882Z,2.00
2024-04-13T10:26:00.032Z,1.63
2024-04-13T10:28:23.119Z,2.25
2024-04-13T10:30:50.205Z,1.67
2024-04-13T10:33:23.419Z,1.60
2024-04-13T10:36:12.456Z,1.80
2024-04-13T10:38:35.926Z,1.55
2024-04-13T10:40:58.466Z,1.35
2024-04-13T10:43:21.375Z,1.77
2024-04-13T10:45:44.415Z,1.23
2024-04-13T10:48:07.520Z,1.50
2024-04-13T10:50:30.069Z,1.80
2024-04-13T10:52:55.973Z,1.70
2024-04-13T10:55:19.345Z,1.80
2024-04-13T10:57:45.522Z,1.50
2024-04-13T11:00:10.188Z,1.85
2024-04-13T11:02:32.853Z,1.80
2024-04-13T11:04:55.383Z,1.75
2024-04-13T11:07:19.397Z,1.95
2024-04-13T11:09:42.409Z,1.58
2024-04-13T11:12:08.450Z,1.75
2024-04-13T11:14:30.840Z,1.40
2024-04-13T11:16:53.536Z,1.90
2024-04-13T11:19:19.307Z,1.40
2024-04-13T11:21:42.400Z,1.60
2024-04-13T11:24:05.035Z,1.50
2024-04-13T11:26:30.567Z,1.35
2024-04-13T11:28:53.049Z,1.70
2024-04-13T11:31:15.964Z,1.65
2024-04-13T11:33:42.050Z,2.08
2024-04-13T11:36:04.677Z,1.55
2024-04-13T11:38:36.564Z,1.70
2024-04-13T11:40:59.044Z,1.60
2024-04-13T11:43:22.819Z,2.20
2024-04-13T11:45:45.411Z,1.95
2024-04-13T11:48:08.910Z,1.58
2024-04-13T11:50:35.613Z,1.80
2024-04-13T11:52:58.306Z,1.92
2024-04-13T11:55:25.592Z,2.00
2024-04-13T11:57:48.668Z,1.90
2024-04-13T12:00:11.643Z,1.55
2024-04-13T12:02:36.724Z,2.05
2024-04-13T12:04:59.810Z,1.80
2024-04-13T12:07:22.342Z,2.25
2024-04-13T12:09:44.900Z,2.10
2024-04-13T12:12:14.030Z,2.00
2024-04-13T12:14:44.203Z,1.80
2024-04-13T12:17:14.424Z,1.92
2024-04-13T12:19:38.180Z,1.77
2024-04-13T12:22:00.574Z,1.77
2024-04-13T12:24:23.427Z,2.15
2024-04-13T12:26:45.875Z,1.85
2024-04-13T12:29:08.524Z,1.23
2024-04-13T12:31:30.996Z,1.73
2024-04-13T12:33:53.430Z,1.80
2024-04-13T12:36:16.043Z,1.80
2024-04-13T12:38:38.708Z,1.52
2024-04-13T12:41:01.119Z,1.83
2024-04-13T12:43:23.607Z,2.20
2024-04-13T12:45:46.153Z,1.83
2024-04-13T12:48:09.030Z,1.67
2024-04-13T12:50:31.510Z,1.77
2024-04-13T12:52:53.928Z,1.80
2024-04-13T12:55:16.401Z,1.70
2024-04-13T12:57:41.155Z,2.08
2024-04-13T13:00:05.951Z,1.83
2024-04-13T13:02:28.459Z,1.85
2024-04-13T13:04:50.879Z,1.85
2024-04-13T13:07:13.502Z,1.70
2024-04-13T13:09:36.126Z,1.83
2024-04-13T13:11:58.528Z,1.85
2024-04-13T13:14:21.959Z,1.60
2024-04-13T13:16:44.438Z,1.70
2024-04-13T13:19:06.906Z,1.70
2024-04-13T13:21:30.711Z,1.58
2024-04-13T13:23:53.361Z,1.48
2024-04-13T13:26:15.856Z,1.60
2024-04-13T13:28:38.401Z,1.85
2024-04-13T13:31:01.237Z,1.83
2024-04-13T13:33:23.870Z,1.50
2024-04-13T13:35:46.330Z,1.73
2024-04-13T13:38:08.826Z,1.55
2024-04-13T13:40:31.675Z,1.50
2024-04-13T13:42:54.178Z,1.25
2024-04-13T13:45:16.748Z,1.50
2024-04-13T13:47:39.329Z,1.73
2024-04-13T13:50:01.823Z,1.15
2024-04-13T13:52:24.330Z,1.33
2024-04-13T13:54:46.856Z,1.08
2024-04-13T13:57:10.545Z,1.00
2024-04-13T13:59:33.173Z,1.15
2024-04-13T14:01:56.656Z,1.00
2024-04-13T14:04:19.127Z,1.65
2024-04-13T14:06:41.651Z,1.23
2024-04-13T14:09:06.386Z,1.00
2024-04-13T14:11:28.855Z,1.20
2024-04-13T14:13:51.296Z,1.30
2024-04-13T14:16:13.914Z,1.33
2024-04-13T14:18:36.341Z,1.20
2024-04-13T14:21:01.408Z,1.20
2024-04-13T14:23:25.443Z,1.20
2024-04-13T14:25:49.282Z,1.10
2024-04-13T14:28:13.279Z,1.20
2024-04-13T14:30:35.696Z,1.10
2024-04-13T14:32:58.397Z,1.02
2024-04-13T14:35:21.602Z,0.90
2024-04-13T14:37:44.013Z,0.52
2024-04-13T14:40:07.605Z,0.60
2024-04-13T14:42:32.601Z,0.63
2024-04-13T14:44:56.259Z,0.70
2024-04-13T14:47:18.743Z,0.55
2024-04-13T14:49:41.210Z,0.60
2024-04-13T14:52:03.702Z,0.68
2024-04-13T14:54:26.185Z,0.63
2024-04-13T14:56:48.660Z,0.80
2024-04-13T14:59:11.124Z,0.90
2024-04-13T15:01:34.478Z,0.75
2024-04-13T15:03:57.079Z,0.80
2024-04-13T15:06:19.585Z,0.65
2024-04-13T15:08:43.152Z,0.80
2024-04-13T15:11:05.683Z,0.90
2024-04-13T15:13:28.719Z,0.60
2024-04-13T15:15:51.256Z,0.90
2024-04-13T15:18:13.951Z,0.70
2024-04-13T15:20:36.429Z,0.80
2024-04-13T15:23:01.720Z,0.65
2024-04-13T15:25:25.092Z,0.70
2024-04-13T15:27:47.595Z,0.68
2024-04-13T15:30:10.492Z,0.65
2024-04-13T15:32:33.079Z,1.00
2024-04-13T15:35:00.530Z,0.80
2024-04-13T15:37:30.968Z,0.57
2024-04-13T15:39:53.729Z,1.00
2024-04-13T15:42:16.300Z,0.70
2024-04-13T15:44:38.733Z,0.77
2024-04-13T15:47:01.367Z,0.80
2024-04-13T15:49:25.003Z,0.75
2024-04-13T15:51:47.548Z,0.95
2024-04-13T15:54:13.207Z,0.60
2024-04-13T15:56:36.363Z,0.80
2024-04-13T15:59:01.136Z,0.70
2024-04-13T16:01:27.551Z,0.88
2024-04-13T16:03:50.195Z,0.70
2024-04-13T16:06:12.855Z,0.80
2024-04-13T16:08:35.570Z,0.65
2024-04-13T16:10:58.087Z,0.95
2024-04-13T16:13:20.665Z,0.70
2024-04-13T16:15:44.173Z,0.90
2024-04-13T16:18:08.713Z,0.60
2024-04-13T16:20:31.191Z,0.63
2024-04-13T16:22:53.757Z,1.10
2024-04-13T16:25:16.206Z,0.70
2024-04-13T16:27:38.782Z,0.68
2024-04-13T16:30:01.237Z,0.85
2024-04-13T16:32:24.192Z,0.73
2024-04-13T16:34:46.657Z,0.80
2024-04-13T16:37:09.070Z,0.70
2024-04-13T16:39:31.891Z,1.02
2024-04-13T16:41:57.176Z,0.80
2024-04-13T16:44:19.625Z,1.13
2024-04-13T16:46:42.085Z,0.90
2024-04-13T16:49:04.929Z,1.20
2024-04-13T16:51:27.383Z,0.75
2024-04-13T16:53:49.848Z,0.75
2024-04-13T16:56:12.733Z,1.00
2024-04-13T16:58:35.690Z,0.80
2024-04-13T17:00:58.202Z,0.60
2024-04-13T17:03:20.979Z,1.02
2024-04-13T17:05:43.446Z,1.00
2024-04-13T17:08:06.272Z,0.80
2024-04-13T17:10:28.776Z,0.80
2024-04-13T17:12:51.249Z,0.98
2024-04-13T17:15:13.961Z,0.70
2024-04-13T17:17:36.512Z,0.70
2024-04-13T17:19:59.002Z,0.85
2024-04-13T17:22:23.937Z,1.17
2024-04-13T17:24:46.399Z,1.10
2024-04-13T17:27:08.871Z,1.23
2024-04-13T17:29:31.330Z,0.80
2024-04-13T17:31:53.769Z,0.80
2024-04-13T17:34:16.437Z,0.93
2024-04-13T17:36:38.932Z,0.85
2024-04-13T17:39:01.378Z,1.30
2024-04-13T17:41:24.763Z,1.75
2024-04-13T17:43:49.455Z,4.70
2024-04-13T17:46:11.915Z,1.60
2024-04-13T17:48:34.493Z,1.98
2024-04-13T17:50:57.168Z,1.20
2024-04-13T17:53:19.584Z,1.45
2024-04-13T17:55:42.134Z,1.10
2024-04-13T17:58:04.636Z,1.50
2024-04-13T18:00:27.131Z,1.00
2024-04-13T18:02:49.890Z,0.85
2024-04-13T18:05:12.431Z,1.00
2024-04-13T18:07:34.820Z,1.10
2024-04-13T18:09:57.649Z,1.00
2024-04-13T18:12:20.191Z,0.88
2024-04-13T18:14:42.633Z,0.90
2024-04-13T18:17:05.142Z,1.05
2024-04-13T18:19:27.705Z,0.90
2024-04-13T18:21:50.360Z,1.20
2024-04-13T18:24:15.119Z,1.15
2024-04-13T18:26:38.943Z,1.00
2024-04-13T18:29:01.380Z,1.10
2024-04-13T18:31:23.855Z,1.33
2024-04-13T18:33:46.374Z,3.60
2024-04-13T18:36:09.498Z,2.88
2024-04-13T18:38:37.857Z,2.45
2024-04-13T18:41:07.080Z,1.80
2024-04-13T18:43:29.482Z,1.67
2024-04-13T18:45:52.140Z,1.73
2024-04-13T18:48:14.823Z,1.70
2024-04-13T18:50:37.354Z,1.58
2024-04-13T18:52:59.856Z,1.48
2024-04-13T18:55:24.508Z,1.38
2024-04-13T18:57:47.080Z,1.73
2024-04-13T19:00:10.742Z,1.40
2024-04-13T19:02:34.119Z,1.27
2024-04-13T19:04:56.716Z,1.08
2024-04-13T19:07:20.161Z,1.45
2024-04-13T19:09:42.638Z,1.30
2024-04-13T19:12:05.388Z,1.20
2024-04-13T19:14:27.878Z,1.08
2024-04-13T19:16:50.655Z,1.30
2024-04-13T19:19:14.774Z,1.50
2024-04-13T19:21:37.345Z,1.92
2024-04-13T19:23:59.981Z,1.50
2024-04-13T19:26:22.421Z,1.40
2024-04-13T19:28:44.878Z,1.33
2024-04-13T19:31:07.685Z,1.17
2024-04-13T19:33:30.545Z,1.50
2024-04-13T19:36:00.272Z,1.17
2024-04-13T19:38:22.784Z,1.48
2024-04-13T19:40:51.712Z,1.30
2024-04-13T19:43:14.462Z,1.55
2024-04-13T19:45:36.995Z,2.40
2024-04-13T19:48:00.923Z,2.30
2024-04-13T19:50:23.484Z,1.92
2024-04-13T19:52:46.291Z,1.60
2024-04-13T19:55:09.097Z,2.20
2024-04-13T19:57:31.653Z,1.35
2024-04-13T19:59:54.395Z,1.70
2024-04-13T20:02:16.895Z,2.13
2024-04-13T20:04:39.543Z,1.70
2024-04-13T20:07:04.475Z,2.30
2024-04-13T20:09:27.066Z,2.28
2024-04-13T20:11:49.594Z,3.00
2024-04-13T20:14:12.078Z,2.67
2024-04-13T20:16:57.260Z,2.42
2024-04-13T20:19:20.054Z,1.83
2024-04-13T20:21:42.581Z,1.85
2024-04-13T20:24:05.536Z,1.40
2024-04-13T20:26:28.051Z,1.63
2024-04-13T20:28:50.573Z,1.73
2024-04-13T20:31:14.200Z,1.75
2024-04-13T20:33:37.947Z,1.73
2024-04-13T20:36:00.644Z,2.03
2024-04-13T20:38:23.597Z,2.10
2024-04-13T20:40:46.284Z,1.65
2024-04-13T20:43:10.372Z,1.98
2024-04-13T20:45:32.952Z,1.80
2024-04-13T20:47:55.533Z,1.75
2024-04-13T20:50:18.263Z,1.77
2024-04-13T20:52:52.985Z,3.00
2024-04-13T20:55:22.356Z,2.85
2024-04-13T20:57:44.819Z,2.50
2024-04-13T21:00:10.177Z,2.67
2024-04-13T21:02:32.774Z,2.88
2024-04-13T21:04:55.284Z,2.38
2024-04-13T21:07:17.898Z,2.63
2024-04-13T21:09:40.909Z,2.40
2024-04-13T21:12:03.504Z,3.50
2024-04-13T21:14:26.298Z,2.72
2024-04-13T21:16:48.747Z,2.97
2024-04-13T21:19:11.372Z,2.60
2024-04-13T21:21:34.031Z,2.45
2024-04-13T21:24:00.063Z,2.00
2024-04-13T21:26:22.541Z,2.40
2024-04-13T21:28:45.030Z,1.90
2024-04-13T21:31:07.545Z,2.03
2024-04-13T21:33:30.238Z,2.10
2024-04-13T21:35:52.780Z,1.90
2024-04-13T21:38:16.494Z,2.08
2024-04-13T21:40:38.995Z,2.20
2024-04-13T21:43:06.161Z,2.10
2024-04-13T21:45:28.919Z,1.55
2024-04-13T21:47:51.474Z,2.10
2024-04-13T21:50:14.201Z,1.95
2024-04-13T21:52:36.737Z,2.15
2024-04-13T21:54:59.616Z,1.92
2024-04-13T21:57:22.220Z,2.10
2024-04-13T21:59:45.913Z,1.90
2024-04-13T22:02:08.568Z,2.05
2024-04-13T22:04:31.290Z,1.95
2024-04-13T22:06:53.972Z,1.80
2024-04-13T22:09:16.914Z,2.13
2024-04-13T22:11:40.386Z,1.67
2024-04-13T22:14:03.020Z,1.58
2024-04-13T22:16:27.659Z,2.05
2024-04-13T22:18:50.247Z,2.00
2024-04-13T22:21:12.777Z,1.95
2024-04-13T22:23:35.357Z,1.85
2024-04-13T22:25:58.182Z,1.88
2024-04-13T22:28:20.744Z,2.13
2024-04-13T22:30:43.292Z,1.70
2024-04-13T22:33:07.031Z,1.95
2024-04-13T22:35:29.602Z,1.92
2024-04-13T22:37:52.030Z,2.00
2024-04-13T22:40:14.494Z,1.80
2024-04-13T22:42:36.922Z,1.90
2024-04-13T22:44:59.463Z,1.85
2024-04-13T22:47:22.197Z,2.17
2024-04-13T22:49:44.653Z,2.42
2024-04-13T22:52:07.193Z,2.00
2024-04-13T22:54:29.847Z,1.83
2024-04-13T22:56:52.932Z,2.10
2024-04-13T22:59:16.843Z,1.95
2024-04-13T23:01:39.399Z,2.17
2024-04-13T23:04:03.706Z,1.80
2024-04-13T23:06:26.290Z,1.88
2024-04-13T23:08:48.704Z,1.80
2024-04-13T23:11:11.134Z,1.80
2024-04-13T23:13:34.038Z,1.77
2024-04-13T23:15:56.651Z,2.35
2024-04-13T23:18:19.959Z,2.00
2024-04-13T23:20:49.141Z,1.70
2024-04-13T23:23:11.610Z,2.08
2024-04-13T23:25:35.092Z,1.98
2024-04-13T23:27:57.531Z,2.00
2024-04-13T23:30:22.957Z,2.03
2024-04-13T23:32:46.193Z,1.63
2024-04-13T23:35:09.434Z,2.00
2024-04-13T23:37:34.012Z,1.70
2024-04-13T23:39:56.742Z,2.00
2024-04-13T23:42:19.206Z,2.33
2024-04-13T23:44:41.648Z,2.40
2024-04-13T23:47:04.220Z,2.17
2024-04-13T23:49:26.835Z,2.03
2024-04-13T23:51:49.331Z,2.53
2024-04-13T23:54:11.864Z,1.98
2024-04-13T23:56:35.014Z,2.20
2024-04-13T23:58:57.848Z,2.53
